createdAt,value
2018-01-07T00:00:50.698Z,2.36
2018-01-07T00:02:17.733Z,2.37
2018-01-07T00:03:46.042Z,2.40
2018-01-07T00:05:13.135Z,2.38
2018-01-07T00:06:39.468Z,2.38
2018-01-07T00:08:06.752Z,2.37
2018-01-07T00:09:34.847Z,2.38
2018-01-07T00:11:00.971Z,2.37
2018-01-07T00:12:29.096Z,2.39
2018-01-07T00:13:55.337Z,2.39
2018-01-07T00:15:23.549Z,2.38
2018-01-07T00:16:50.515Z,2.37
2018-01-07T00:18:17.715Z,2.34
2018-01-07T00:19:45.093Z,2.32
2018-01-07T00:21:10.987Z,2.30
2018-01-07T00:22:39.300Z,2.29
2018-01-07T00:24:06.493Z,2.30
2018-01-07T00:25:33.797Z,2.31
2018-01-07T00:26:59.848Z,2.31
2018-01-07T00:28:27.891Z,2.31
2018-01-07T00:29:55.145Z,2.28
2018-01-07T00:31:21.107Z,2.28
2018-01-07T00:32:48.287Z,2.27
2018-01-07T00:34:16.283Z,2.27
2018-01-07T00:35:42.471Z,2.26
2018-01-07T00:37:09.668Z,2.23
2018-01-07T00:38:38.176Z,2.20
2018-01-07T00:40:05.349Z,2.17
2018-01-07T00:41:31.285Z,2.15
2018-01-07T00:42:59.594Z,2.14
2018-01-07T00:44:25.746Z,2.14
2018-01-07T00:45:53.829Z,2.12
2018-01-07T00:47:20.120Z,2.08
2018-01-07T00:48:47.248Z,2.08
2018-01-07T00:50:14.360Z,2.07
2018-01-07T00:51:41.588Z,2.06
2018-01-07T00:53:08.898Z,2.05
2018-01-07T00:54:37.227Z,2.03
2018-01-07T00:56:04.538Z,2.00
2018-01-07T00:57:31.819Z,2.00
2018-01-07T00:58:58.955Z,1.99
2018-01-07T01:00:26.295Z,1.97
2018-01-07T01:01:53.322Z,1.96
2018-01-07T01:03:25.802Z,1.97
2018-01-07T01:04:47.632Z,1.97
2018-01-07T01:06:13.902Z,1.98
2018-01-07T01:07:42.371Z,1.98
2018-01-07T01:09:08.424Z,1.98
2018-01-07T01:10:35.804Z,1.97
2018-01-07T01:12:02.746Z,1.97
2018-01-07T01:13:31.024Z,1.94
2018-01-07T01:14:57.376Z,1.93
2018-01-07T01:16:25.501Z,1.92
2018-01-07T01:17:52.663Z,1.92
2018-01-07T01:19:19.702Z,1.92
2018-01-07T01:20:46.889Z,1.94
2018-01-07T01:22:12.961Z,1.97
2018-01-07T01:23:41.173Z,1.96
2018-01-07T01:25:08.553Z,1.96
2018-01-07T01:26:34.632Z,1.96
2018-01-07T01:28:01.729Z,1.97
2018-01-07T01:29:30.054Z,1.98
2018-01-07T01:30:57.174Z,1.97
2018-01-07T01:32:23.366Z,1.95
2018-01-07T01:33:50.456Z,1.95
2018-01-07T01:35:18.311Z,1.96
2018-01-07T01:36:45.392Z,1.95
2018-01-07T01:38:12.624Z,1.95
2018-01-07T01:39:39.782Z,1.97
2018-01-07T01:41:05.822Z,1.97
2018-01-07T01:42:34.041Z,1.97
2018-01-07T01:44:01.149Z,1.97
2018-01-07T01:45:28.333Z,1.96
2018-01-07T01:46:55.589Z,1.96
2018-01-07T01:48:22.618Z,1.96
2018-01-07T01:49:49.724Z,1.96
2018-01-07T01:51:16.711Z,1.95
2018-01-07T01:52:43.992Z,1.95
2018-01-07T01:54:11.010Z,1.97
2018-01-07T01:55:38.388Z,1.97
2018-01-07T01:57:04.351Z,1.98
2018-01-07T01:58:32.595Z,1.98
2018-01-07T01:59:58.605Z,1.95
2018-01-07T02:01:26.872Z,1.94
2018-01-07T02:02:53.855Z,1.94
2018-01-07T02:04:20.110Z,1.92
2018-01-07T02:05:47.063Z,1.91
2018-01-07T02:07:15.208Z,1.91
2018-01-07T02:08:42.533Z,1.90
2018-01-07T02:10:09.701Z,1.90
2018-01-07T02:11:35.880Z,1.89
2018-01-07T02:13:04.240Z,1.89
2018-01-07T02:14:30.036Z,1.86
2018-01-07T02:15:58.186Z,1.85
2018-01-07T02:17:24.471Z,1.84
2018-01-07T02:18:52.692Z,1.82
2018-01-07T02:20:19.758Z,1.81
2018-01-07T02:21:45.849Z,1.81
2018-01-07T02:23:13.130Z,1.80
2018-01-07T02:24:40.304Z,1.82
2018-01-07T02:26:07.525Z,1.82
2018-01-07T02:27:34.982Z,1.80
2018-01-07T02:29:02.982Z,1.80
2018-01-07T02:30:29.239Z,1.79
2018-01-07T02:31:56.380Z,1.79
2018-01-07T02:33:24.434Z,1.74
2018-01-07T02:34:51.574Z,1.72
2018-01-07T02:36:18.678Z,1.68
2018-01-07T02:37:45.779Z,1.65
2018-01-07T02:39:12.998Z,1.62
2018-01-07T02:40:40.281Z,1.61
2018-01-07T02:42:07.783Z,1.58
2018-01-07T02:43:33.660Z,1.54
2018-01-07T02:45:01.776Z,1.51
2018-01-07T02:46:29.121Z,1.48
2018-01-07T02:47:56.603Z,1.45
2018-01-07T02:49:22.499Z,1.43
2018-01-07T02:50:50.525Z,1.42
2018-01-07T02:52:17.647Z,1.42
2018-01-07T02:53:44.660Z,1.40
2018-01-07T02:55:10.897Z,1.40
2018-01-07T02:56:39.120Z,1.38
2018-01-07T02:58:05.544Z,1.38
2018-01-07T02:59:33.528Z,1.38
2018-01-07T03:01:00.772Z,1.38
2018-01-07T03:02:26.934Z,1.38
2018-01-07T03:03:55.053Z,1.37
2018-01-07T03:05:20.984Z,1.36
2018-01-07T03:06:48.376Z,1.36
2018-01-07T03:08:15.531Z,1.36
2018-01-07T03:09:43.464Z,1.36
2018-01-07T03:11:10.725Z,1.34
2018-01-07T03:12:36.964Z,1.33
2018-01-07T03:14:05.131Z,1.31
2018-01-07T03:15:31.097Z,1.31
2018-01-07T03:16:59.315Z,1.31
2018-01-07T03:18:25.347Z,1.31
2018-01-07T03:19:53.408Z,1.30
2018-01-07T03:21:19.739Z,1.26
2018-01-07T03:22:47.875Z,1.22
2018-01-07T03:24:14.838Z,1.21
2018-01-07T03:25:42.124Z,1.21
2018-01-07T03:27:09.382Z,1.17
2018-01-07T03:28:36.316Z,1.15
2018-01-07T03:30:02.512Z,1.13
2018-01-07T03:31:29.720Z,1.13
2018-01-07T03:32:57.694Z,1.10
2018-01-07T03:34:24.934Z,1.08
2018-01-07T03:35:51.142Z,1.07
2018-01-07T03:37:19.175Z,1.06
2018-01-07T03:38:46.188Z,1.04
2018-01-07T03:40:12.579Z,1.04
2018-01-07T03:41:40.872Z,1.02
2018-01-07T03:43:07.931Z,1.00
2018-01-07T03:44:34.201Z,1.00
2018-01-07T03:46:02.109Z,0.98
2018-01-07T03:47:28.095Z,0.96
2018-01-07T03:48:56.295Z,0.93
2018-01-07T03:50:22.424Z,0.91
2018-01-07T03:51:49.630Z,0.89
2018-01-07T03:53:16.774Z,0.87
2018-01-07T03:54:44.977Z,0.86
2018-01-07T03:56:12.252Z,0.83
2018-01-07T03:57:38.524Z,0.81
2018-01-07T03:59:06.569Z,0.80
2018-01-07T04:00:33.548Z,0.79
2018-01-07T04:02:00.775Z,0.79
2018-01-07T04:03:28.006Z,0.77
2018-01-07T04:04:55.160Z,0.77
2018-01-07T04:06:22.107Z,0.74
2018-01-07T04:07:49.151Z,0.73
2018-01-07T04:09:15.313Z,0.72
2018-01-07T04:10:42.447Z,0.72
2018-01-07T04:12:10.396Z,0.70
2018-01-07T04:13:36.732Z,0.70
2018-01-07T04:15:07.206Z,0.70
2018-01-07T04:16:32.092Z,0.70
2018-01-07T04:17:59.274Z,0.68
2018-01-07T04:19:25.415Z,0.67
2018-01-07T04:20:52.552Z,0.66
2018-01-07T04:22:19.672Z,0.66
2018-01-07T04:23:47.908Z,0.66
2018-01-07T04:25:14.819Z,0.67
2018-01-07T04:26:40.987Z,0.66
2018-01-07T04:28:08.180Z,0.66
2018-01-07T04:29:36.385Z,0.65
2018-01-07T04:31:02.379Z,0.65
2018-01-07T04:32:29.614Z,0.64
2018-01-07T04:33:57.632Z,0.64
2018-01-07T04:35:24.757Z,0.63
2018-01-07T04:36:51.872Z,0.62
2018-01-07T04:38:19.114Z,0.61
2018-01-07T04:39:46.258Z,0.61
2018-01-07T04:41:12.434Z,0.62
2018-01-07T04:42:40.223Z,0.62
2018-01-07T04:44:07.582Z,0.63
2018-01-07T04:45:34.589Z,0.63
2018-01-07T04:47:00.601Z,0.63
2018-01-07T04:48:28.740Z,0.63
2018-01-07T04:49:55.695Z,0.64
2018-01-07T04:51:22.988Z,0.66
2018-01-07T04:52:49.082Z,0.64
2018-01-07T04:54:16.068Z,0.63
2018-01-07T04:55:43.324Z,0.64
2018-01-07T04:57:10.636Z,0.64
2018-01-07T04:58:38.937Z,0.64
2018-01-07T05:00:04.833Z,0.62
2018-01-07T05:01:32.964Z,0.60
2018-01-07T05:03:00.094Z,0.60
2018-01-07T05:04:27.066Z,0.61
2018-01-07T05:05:54.117Z,0.60
2018-01-07T05:07:20.249Z,0.60
2018-01-07T05:08:48.208Z,0.61
2018-01-07T05:10:14.100Z,0.61
2018-01-07T05:11:41.301Z,0.61
2018-01-07T05:13:09.212Z,0.61
2018-01-07T05:14:35.504Z,0.61
2018-01-07T05:16:03.451Z,0.62
2018-01-07T05:17:30.606Z,0.61
2018-01-07T05:18:56.681Z,0.59
2018-01-07T05:20:24.745Z,0.57
2018-01-07T05:21:51.680Z,0.56
2018-01-07T05:23:17.783Z,0.55
2018-01-07T05:24:44.620Z,0.55
2018-01-07T05:26:11.736Z,0.54
2018-01-07T05:27:39.934Z,0.53
2018-01-07T05:29:09.059Z,0.52
2018-01-07T05:30:32.967Z,0.52
2018-01-07T05:32:00.082Z,0.51
2018-01-07T05:33:27.269Z,0.51
2018-01-07T05:34:55.480Z,0.51
2018-01-07T05:36:22.431Z,0.52
2018-01-07T05:37:48.420Z,0.50
2018-01-07T05:39:15.486Z,0.50
2018-01-07T05:40:43.526Z,0.50
2018-01-07T05:42:10.408Z,0.49
2018-01-07T05:43:37.611Z,0.50
2018-01-07T05:45:04.717Z,0.50
2018-01-07T05:46:30.805Z,0.51
2018-01-07T05:47:58.888Z,0.51
2018-01-07T05:49:26.015Z,0.50
2018-01-07T05:50:52.655Z,0.48
2018-01-07T05:52:19.700Z,0.47
2018-01-07T05:53:45.816Z,0.46
2018-01-07T05:55:12.814Z,0.44
2018-01-07T05:56:41.058Z,0.44
2018-01-07T05:58:08.503Z,0.44
2018-01-07T05:59:35.631Z,0.44
2018-01-07T06:01:01.610Z,0.43
2018-01-07T06:02:28.781Z,0.43
2018-01-07T06:03:56.926Z,0.41
2018-01-07T06:05:22.835Z,0.41
2018-01-07T06:06:50.927Z,0.39
2018-01-07T06:08:18.230Z,0.38
2018-01-07T06:09:44.244Z,0.37
2018-01-07T06:11:12.228Z,0.36
2018-01-07T06:12:39.431Z,0.35
2018-01-07T06:14:08.567Z,0.35
2018-01-07T06:15:33.593Z,0.35
2018-01-07T06:16:59.766Z,0.34
2018-01-07T06:18:27.979Z,0.35
2018-01-07T06:19:54.020Z,0.36
2018-01-07T06:21:22.325Z,0.34
2018-01-07T06:22:49.452Z,0.33
2018-01-07T06:24:16.358Z,0.34
2018-01-07T06:25:42.557Z,0.33
2018-01-07T06:27:10.728Z,0.35
2018-01-07T06:28:37.856Z,0.35
2018-01-07T06:30:04.809Z,0.35
2018-01-07T06:31:30.751Z,0.35
2018-01-07T06:32:57.784Z,0.34
2018-01-07T06:34:26.027Z,0.35
2018-01-07T06:35:53.010Z,0.34
2018-01-07T06:37:20.078Z,0.35
2018-01-07T06:38:46.882Z,0.35
2018-01-07T06:40:13.269Z,0.35
2018-01-07T06:41:40.453Z,0.36
2018-01-07T06:43:10.428Z,0.38
2018-01-07T06:44:37.749Z,0.37
2018-01-07T06:46:02.713Z,0.37
2018-01-07T06:47:29.546Z,0.37
2018-01-07T06:48:55.823Z,0.37
2018-01-07T06:50:23.998Z,0.36
2018-01-07T06:51:50.806Z,0.36
2018-01-07T06:53:16.881Z,0.34
2018-01-07T06:54:44.600Z,0.34
2018-01-07T06:56:11.666Z,0.34
2018-01-07T06:57:38.921Z,0.34
2018-01-07T06:59:06.383Z,0.35
2018-01-07T07:00:33.261Z,0.34
2018-01-07T07:02:00.378Z,0.35
2018-01-07T07:03:27.426Z,0.36
2018-01-07T07:04:53.250Z,0.36
2018-01-07T07:06:20.294Z,0.36
2018-01-07T07:07:47.440Z,0.36
2018-01-07T07:09:15.258Z,0.37
2018-01-07T07:10:42.448Z,0.38
2018-01-07T07:12:09.830Z,0.40
2018-01-07T07:13:36.951Z,0.40
2018-01-07T07:15:03.885Z,0.40
2018-01-07T07:16:31.090Z,0.39
2018-01-07T07:17:58.168Z,0.39
2018-01-07T07:19:25.270Z,0.38
2018-01-07T07:20:52.258Z,0.37
2018-01-07T07:22:18.473Z,0.37
2018-01-07T07:23:45.596Z,0.37
2018-01-07T07:25:13.338Z,0.37
2018-01-07T07:26:40.578Z,0.38
2018-01-07T07:28:06.527Z,0.37
2018-01-07T07:29:33.667Z,0.38
2018-01-07T07:31:01.694Z,0.39
2018-01-07T07:32:27.753Z,0.38
2018-01-07T07:33:57.878Z,0.38
2018-01-07T07:35:23.035Z,0.39
2018-01-07T07:36:50.077Z,0.39
2018-01-07T07:38:17.136Z,0.41
2018-01-07T07:39:44.450Z,0.40
2018-01-07T07:41:10.497Z,0.40
2018-01-07T07:42:38.660Z,0.39
2018-01-07T07:44:04.839Z,0.39
2018-01-07T07:45:32.854Z,0.39
2018-01-07T07:46:59.957Z,0.39
2018-01-07T07:48:26.157Z,0.36
2018-01-07T07:49:54.196Z,0.36
2018-01-07T07:51:21.427Z,0.36
2018-01-07T07:52:48.346Z,0.37
2018-01-07T07:54:14.368Z,0.38
2018-01-07T07:55:41.408Z,0.39
2018-01-07T07:57:08.754Z,0.39
2018-01-07T07:58:36.925Z,0.41
2018-01-07T08:00:03.989Z,0.41
2018-01-07T08:01:31.199Z,0.42
2018-01-07T08:02:57.516Z,0.43
2018-01-07T08:04:25.662Z,0.45
2018-01-07T08:05:52.469Z,0.47
2018-01-07T08:07:18.666Z,0.45
2018-01-07T08:08:46.848Z,0.46
2018-01-07T08:10:14.034Z,0.44
2018-01-07T08:11:39.960Z,0.44
2018-01-07T08:13:07.193Z,0.43
2018-01-07T08:14:35.034Z,0.42
2018-01-07T08:16:02.088Z,0.42
2018-01-07T08:17:29.299Z,0.41
2018-01-07T08:18:55.454Z,0.41
2018-01-07T08:20:23.571Z,0.40
2018-01-07T08:21:50.626Z,0.40
2018-01-07T08:23:17.754Z,0.42
2018-01-07T08:24:45.119Z,0.42
2018-01-07T08:26:12.055Z,0.44
2018-01-07T08:27:38.015Z,0.45
2018-01-07T08:29:06.255Z,0.49
2018-01-07T08:30:32.455Z,0.51
2018-01-07T08:31:59.679Z,0.53
2018-01-07T08:33:27.655Z,0.54
2018-01-07T08:34:54.650Z,0.55
2018-01-07T08:36:20.668Z,0.56
2018-01-07T08:37:47.752Z,0.56
2018-01-07T08:39:14.866Z,0.55
2018-01-07T08:40:42.039Z,0.55
2018-01-07T08:42:09.271Z,0.54
2018-01-07T08:43:36.503Z,0.53
2018-01-07T08:45:03.421Z,0.53
2018-01-07T08:46:31.512Z,0.54
2018-01-07T08:47:58.595Z,0.54
2018-01-07T08:49:24.873Z,0.53
2018-01-07T08:50:52.965Z,0.53
2018-01-07T08:52:20.308Z,0.54
2018-01-07T08:53:47.412Z,0.54
2018-01-07T08:55:13.605Z,0.54
2018-01-07T08:56:40.499Z,0.55
2018-01-07T08:58:07.801Z,0.54
2018-01-07T08:59:36.213Z,0.57
2018-01-07T09:01:02.971Z,0.58
2018-01-07T09:02:30.113Z,0.59
2018-01-07T09:03:56.393Z,0.62
2018-01-07T09:05:23.452Z,0.64
2018-01-07T09:06:51.472Z,0.65
2018-01-07T09:08:17.704Z,0.68
2018-01-07T09:09:45.794Z,0.70
2018-01-07T09:11:12.960Z,0.69
2018-01-07T09:12:39.182Z,0.70
2018-01-07T09:14:06.170Z,0.71
2018-01-07T09:15:34.094Z,0.71
2018-01-07T09:17:01.414Z,0.72
2018-01-07T09:18:28.490Z,0.72
2018-01-07T09:19:54.739Z,0.72
2018-01-07T09:21:22.841Z,0.72
2018-01-07T09:22:49.952Z,0.72
2018-01-07T09:24:16.940Z,0.72
2018-01-07T09:25:44.142Z,0.72
2018-01-07T09:27:11.296Z,0.74
2018-01-07T09:28:37.609Z,0.74
2018-01-07T09:30:07.749Z,0.76
2018-01-07T09:31:32.808Z,0.78
2018-01-07T09:32:58.926Z,0.82
2018-01-07T09:34:27.192Z,0.83
2018-01-07T09:35:53.214Z,0.86
2018-01-07T09:37:20.344Z,0.89
2018-01-07T09:38:47.516Z,0.92
2018-01-07T09:40:14.430Z,0.95
2018-01-07T09:41:42.581Z,0.97
2018-01-07T09:43:08.866Z,0.97
2018-01-07T09:44:36.869Z,0.96
2018-01-07T09:46:04.152Z,0.94
2018-01-07T09:47:30.158Z,0.93
2018-01-07T09:48:57.559Z,0.94
2018-01-07T09:50:25.630Z,0.94
2018-01-07T09:51:52.753Z,0.95
2018-01-07T09:53:19.757Z,0.97
2018-01-07T09:54:45.916Z,0.99
2018-01-07T09:56:12.866Z,1.01
2018-01-07T09:57:40.062Z,1.02
2018-01-07T09:59:07.147Z,1.02
2018-01-07T10:00:34.289Z,1.02
2018-01-07T10:02:02.412Z,1.03
2018-01-07T10:03:29.866Z,1.03
2018-01-07T10:04:57.013Z,1.03
2018-01-07T10:06:24.307Z,1.03
2018-01-07T10:07:50.385Z,1.04
2018-01-07T10:09:18.629Z,1.05
2018-01-07T10:10:45.722Z,1.05
2018-01-07T10:12:12.941Z,1.07
2018-01-07T10:13:39.052Z,1.08
2018-01-07T10:15:09.119Z,1.10
2018-01-07T10:16:34.216Z,1.13
2018-01-07T10:18:00.180Z,1.12
2018-01-07T10:19:27.442Z,1.13
2018-01-07T10:20:55.628Z,1.13
2018-01-07T10:22:22.736Z,1.16
2018-01-07T10:23:49.718Z,1.17
2018-01-07T10:25:16.905Z,1.17
2018-01-07T10:26:43.900Z,1.18
2018-01-07T10:28:11.034Z,1.19
2018-01-07T10:29:38.225Z,1.21
2018-01-07T10:31:04.365Z,1.22
2018-01-07T10:32:32.402Z,1.23
2018-01-07T10:33:59.586Z,1.25
2018-01-07T10:35:26.718Z,1.26
2018-01-07T10:36:52.885Z,1.27
2018-01-07T10:38:19.884Z,1.30
2018-01-07T10:39:48.069Z,1.33
2018-01-07T10:41:15.211Z,1.35
2018-01-07T10:42:41.481Z,1.38
2018-01-07T10:44:08.758Z,1.40
2018-01-07T10:45:35.915Z,1.44
2018-01-07T10:47:03.930Z,1.47
2018-01-07T10:48:31.265Z,1.50
2018-01-07T10:49:58.318Z,1.53
2018-01-07T10:51:25.469Z,1.56
2018-01-07T10:52:52.487Z,1.57
2018-01-07T10:54:18.683Z,1.59
2018-01-07T10:55:46.497Z,1.59
2018-01-07T10:57:12.974Z,1.60
2018-01-07T10:58:40.902Z,1.62
2018-01-07T11:00:07.182Z,1.64
2018-01-07T11:01:35.236Z,1.66
2018-01-07T11:03:02.288Z,1.67
2018-01-07T11:04:29.480Z,1.69
2018-01-07T11:05:55.688Z,1.74
2018-01-07T11:07:23.923Z,1.76
2018-01-07T11:08:51.005Z,1.79
2018-01-07T11:10:17.234Z,1.81
2018-01-07T11:11:44.127Z,1.82
2018-01-07T11:13:12.372Z,1.85
2018-01-07T11:14:38.446Z,1.87
2018-01-07T11:16:05.617Z,1.87
2018-01-07T11:17:32.702Z,1.88
2018-01-07T11:18:59.691Z,1.88
2018-01-07T11:20:28.068Z,1.90
2018-01-07T11:21:54.319Z,1.90
2018-01-07T11:23:21.552Z,1.90
2018-01-07T11:24:48.670Z,1.91
2018-01-07T11:26:15.509Z,1.91
2018-01-07T11:27:43.696Z,1.91
2018-01-07T11:29:09.921Z,1.95
2018-01-07T11:30:37.124Z,1.97
2018-01-07T11:32:05.273Z,1.97
2018-01-07T11:33:32.164Z,1.99
2018-01-07T11:34:58.348Z,2.00
2018-01-07T11:36:25.634Z,2.00
2018-01-07T11:37:52.716Z,2.02
2018-01-07T11:39:19.569Z,2.05
2018-01-07T11:40:47.792Z,2.08
2018-01-07T11:42:14.889Z,2.15
2018-01-07T11:43:41.982Z,2.21
2018-01-07T11:45:08.243Z,2.27
2018-01-07T11:46:35.598Z,2.33
2018-01-07T11:48:02.514Z,2.38
2018-01-07T11:49:30.558Z,2.43
2018-01-07T11:50:56.947Z,2.48
2018-01-07T11:52:25.008Z,2.52
2018-01-07T11:53:52.067Z,2.54
2018-01-07T11:55:18.272Z,2.55
2018-01-07T11:56:45.367Z,2.55
2018-01-07T11:58:13.572Z,2.55
2018-01-07T11:59:39.620Z,2.58
2018-01-07T12:01:07.848Z,2.60
2018-01-07T12:02:34.131Z,2.60
2018-01-07T12:04:01.486Z,2.60
2018-01-07T12:05:28.385Z,2.55
2018-01-07T12:06:56.517Z,2.52
2018-01-07T12:08:23.858Z,2.53
2018-01-07T12:09:50.811Z,2.51
2018-01-07T12:11:17.971Z,2.52
2018-01-07T12:12:45.260Z,2.52
2018-01-07T12:14:12.547Z,2.53
2018-01-07T12:15:38.790Z,2.52
2018-01-07T12:17:06.048Z,2.54
2018-01-07T12:18:33.857Z,2.54
2018-01-07T12:20:01.031Z,2.54
2018-01-07T12:21:27.354Z,2.53
2018-01-07T12:22:55.658Z,2.54
2018-01-07T12:24:22.634Z,2.55
2018-01-07T12:25:49.850Z,2.55
2018-01-07T12:27:15.734Z,2.56
2018-01-07T12:28:42.959Z,2.57
2018-01-07T12:30:11.307Z,2.58
2018-01-07T12:31:38.502Z,2.60
2018-01-07T12:33:04.376Z,2.61
2018-01-07T12:34:31.677Z,2.63
2018-01-07T12:35:59.757Z,2.63
2018-01-07T12:37:26.039Z,2.65
2018-01-07T12:38:52.885Z,2.65
2018-01-07T12:40:20.897Z,2.67
2018-01-07T12:41:48.136Z,2.68
2018-01-07T12:43:14.236Z,2.70
2018-01-07T12:44:41.324Z,2.71
2018-01-07T12:46:08.681Z,2.71
2018-01-07T12:47:35.704Z,2.71
2018-01-07T12:49:02.995Z,2.71
2018-01-07T12:50:31.035Z,2.69
2018-01-07T12:51:58.211Z,2.68
2018-01-07T12:53:24.595Z,2.65
2018-01-07T12:54:52.701Z,2.61
2018-01-07T12:56:19.917Z,2.60
2018-01-07T12:57:46.149Z,2.59
2018-01-07T12:59:13.477Z,2.57
2018-01-07T13:00:40.619Z,2.55
2018-01-07T13:02:08.742Z,2.54
2018-01-07T13:03:35.799Z,2.54
2018-01-07T13:05:02.216Z,2.54
2018-01-07T13:06:30.461Z,2.55
2018-01-07T13:07:57.663Z,2.55
2018-01-07T13:09:24.906Z,2.58
2018-01-07T13:10:50.742Z,2.61
2018-01-07T13:12:17.959Z,2.66
2018-01-07T13:13:44.985Z,2.71
2018-01-07T13:15:12.174Z,2.77
2018-01-07T13:16:39.209Z,2.83
2018-01-07T13:18:06.541Z,2.89
2018-01-07T13:19:33.772Z,2.94
2018-01-07T13:21:00.816Z,2.99
2018-01-07T13:22:27.972Z,3.03
2018-01-07T13:23:56.259Z,3.07
2018-01-07T13:25:22.221Z,3.13
2018-01-07T13:26:50.161Z,3.19
2018-01-07T13:28:17.496Z,3.24
2018-01-07T13:29:43.641Z,3.27
2018-01-07T13:31:10.775Z,3.29
2018-01-07T13:32:38.751Z,3.28
2018-01-07T13:34:15.744Z,3.30
2018-01-07T13:35:44.801Z,3.32
2018-01-07T13:37:10.115Z,3.33
2018-01-07T13:38:37.226Z,3.33
2018-01-07T13:40:04.543Z,3.34
2018-01-07T13:41:31.645Z,3.35
2018-01-07T13:42:57.978Z,3.34
2018-01-07T13:44:25.066Z,3.33
2018-01-07T13:45:53.146Z,3.31
2018-01-07T13:47:20.370Z,3.31
2018-01-07T13:48:47.351Z,3.30
2018-01-07T13:50:14.564Z,3.30
2018-01-07T13:51:41.036Z,3.28
2018-01-07T13:53:08.339Z,3.25
2018-01-07T13:54:35.592Z,3.22
2018-01-07T13:56:03.686Z,3.21
2018-01-07T13:57:31.117Z,3.19
2018-01-07T13:58:57.328Z,3.17
2018-01-07T14:00:24.544Z,3.15
2018-01-07T14:01:51.619Z,3.14
2018-01-07T14:03:19.994Z,3.12
2018-01-07T14:04:46.875Z,3.11
2018-01-07T14:06:14.159Z,3.08
2018-01-07T14:07:41.366Z,3.02
2018-01-07T14:09:07.637Z,2.96
2018-01-07T14:10:37.754Z,2.91
2018-01-07T14:12:02.754Z,2.86
2018-01-07T14:13:28.966Z,2.83
2018-01-07T14:14:57.030Z,2.80
2018-01-07T14:16:23.295Z,2.73
2018-01-07T14:17:50.208Z,2.68
2018-01-07T14:19:17.350Z,2.64
2018-01-07T14:20:45.190Z,2.60
2018-01-07T14:22:12.296Z,2.54
2018-01-07T14:23:39.267Z,2.49
2018-01-07T14:25:05.547Z,2.46
2018-01-07T14:26:35.767Z,2.44
2018-01-07T14:27:59.981Z,2.43
2018-01-07T14:29:27.151Z,2.41
2018-01-07T14:30:55.295Z,2.43
2018-01-07T14:32:21.380Z,2.46
2018-01-07T14:33:49.576Z,2.48
2018-01-07T14:35:15.538Z,2.53
2018-01-07T14:36:42.946Z,2.55
2018-01-07T14:38:11.161Z,2.56
2018-01-07T14:39:38.436Z,2.58
2018-01-07T14:41:04.575Z,2.58
2018-01-07T14:42:32.777Z,2.56
2018-01-07T14:44:00.045Z,2.53
2018-01-07T14:45:27.077Z,2.54
2018-01-07T14:46:53.288Z,2.55
2018-01-07T14:48:20.416Z,2.54
2018-01-07T14:49:47.498Z,2.54
2018-01-07T14:51:15.500Z,2.57
2018-01-07T14:52:42.733Z,2.59
2018-01-07T14:54:09.070Z,2.59
2018-01-07T14:57:03.702Z,2.51
2018-01-07T14:58:30.788Z,2.46
2018-01-07T14:59:58.090Z,2.41
2018-01-07T15:01:26.430Z,2.36
2018-01-07T15:02:52.503Z,2.32
2018-01-07T15:04:19.630Z,2.27
2018-01-07T15:05:46.672Z,2.25
2018-01-07T15:07:13.978Z,2.20
2018-01-07T15:08:42.283Z,2.16
2018-01-07T15:10:09.271Z,2.10
2018-01-07T15:11:35.419Z,2.04
2018-01-07T15:13:03.561Z,1.99
2018-01-07T15:14:30.692Z,1.95
2018-01-07T15:15:57.052Z,1.90
2018-01-07T15:17:23.993Z,1.87
2018-01-07T15:18:52.094Z,1.86
2018-01-07T15:20:18.206Z,1.82
2018-01-07T15:21:46.353Z,1.80
2018-01-07T15:23:12.344Z,1.75
2018-01-07T15:24:40.421Z,1.72
2018-01-07T15:26:07.689Z,1.71
2018-01-07T15:27:34.733Z,1.71
2018-01-07T15:29:00.742Z,1.70
2018-01-07T15:30:29.055Z,1.69
2018-01-07T15:31:56.164Z,1.66
2018-01-07T15:33:23.148Z,1.64
2018-01-07T15:34:50.225Z,1.60
2018-01-07T15:36:17.468Z,1.53
2018-01-07T15:37:44.524Z,1.51
2018-01-07T15:39:10.794Z,1.48
2018-01-07T15:40:39.197Z,1.44
2018-01-07T15:42:06.453Z,1.40
2018-01-07T15:43:33.448Z,1.36
2018-01-07T15:44:59.781Z,1.34
2018-01-07T15:46:27.083Z,1.35
2018-01-07T15:47:54.224Z,1.38
2018-01-07T15:49:22.418Z,1.43
2018-01-07T15:50:49.586Z,1.46
2018-01-07T15:52:15.730Z,1.44
2018-01-07T15:53:44.052Z,1.40
2018-01-07T15:55:10.022Z,1.37
2018-01-07T15:56:37.411Z,1.37
2018-01-07T15:58:04.436Z,1.37
2018-01-07T15:59:32.646Z,1.34
2018-01-07T16:00:58.918Z,1.33
2018-01-07T16:02:27.184Z,1.33
2018-01-07T16:03:54.182Z,1.33
2018-01-07T16:05:21.442Z,1.31
2018-01-07T16:06:47.469Z,1.27
2018-01-07T16:08:14.504Z,1.24
2018-01-07T16:09:42.530Z,1.19
2018-01-07T16:11:09.741Z,1.15
2018-01-07T16:12:36.775Z,1.14
2018-01-07T16:14:04.131Z,1.12
2018-01-07T16:15:30.998Z,1.08
2018-01-07T16:16:58.108Z,1.06
2018-01-07T16:18:25.389Z,1.05
2018-01-07T16:19:52.471Z,1.07
2018-01-07T16:21:18.593Z,1.05
2018-01-07T16:22:46.292Z,1.02
2018-01-07T16:24:12.231Z,1.03
2018-01-07T16:25:40.210Z,1.04
2018-01-07T16:27:07.542Z,1.04
2018-01-07T16:28:35.248Z,1.00
2018-01-07T16:30:02.089Z,0.96
2018-01-07T16:31:28.137Z,0.91
2018-01-07T16:32:55.545Z,0.86
2018-01-07T16:34:22.713Z,0.83
2018-01-07T16:35:49.632Z,0.80
2018-01-07T16:37:16.734Z,0.77
2018-01-07T16:38:44.774Z,0.78
2018-01-07T16:40:12.127Z,0.76
2018-01-07T16:41:39.190Z,0.75
2018-01-07T16:43:05.413Z,0.73
2018-01-07T16:44:33.466Z,0.62
2018-01-07T16:45:59.527Z,0.57
2018-01-07T16:47:27.730Z,0.56
2018-01-07T16:48:54.690Z,0.53
2018-01-07T16:50:21.868Z,0.52
2018-01-07T16:51:48.005Z,0.51
2018-01-07T16:53:15.105Z,0.52
2018-01-07T16:54:43.203Z,0.54
2018-01-07T16:56:09.169Z,0.55
2018-01-07T16:57:39.463Z,0.54
2018-01-07T16:59:04.817Z,0.55
2018-01-07T17:00:31.628Z,0.57
2018-01-07T17:01:58.806Z,0.58
2018-01-07T17:03:26.014Z,0.56
2018-01-07T17:04:55.056Z,0.55
2018-01-07T17:06:18.848Z,0.53
2018-01-07T17:07:46.906Z,0.49
2018-01-07T17:09:14.246Z,0.47
2018-01-07T17:10:43.674Z,0.48
2018-01-07T17:12:08.411Z,0.46
2018-01-07T17:13:35.582Z,0.43
2018-01-07T17:15:01.815Z,0.40
2018-01-07T17:16:29.951Z,0.41
2018-01-07T17:17:56.027Z,0.45
2018-01-07T17:19:23.717Z,0.50
2018-01-07T17:20:49.699Z,0.54
2018-01-07T17:22:16.546Z,0.56
2018-01-07T17:23:44.902Z,0.52
2018-01-07T17:25:11.065Z,0.47
2018-01-07T17:26:39.596Z,0.41
2018-01-07T17:28:06.402Z,0.39
2018-01-07T17:29:32.894Z,0.41
2018-01-07T17:31:00.856Z,0.41
2018-01-07T17:32:27.073Z,0.37
2018-01-07T17:33:55.278Z,0.34
2018-01-07T17:35:22.343Z,0.33
2018-01-07T17:36:48.176Z,0.33
2018-01-07T17:38:15.106Z,0.37
2018-01-07T17:39:43.278Z,0.43
2018-01-07T17:41:10.481Z,0.47
2018-01-07T17:42:36.327Z,0.49
2018-01-07T17:44:04.516Z,0.50
2018-01-07T17:45:30.740Z,0.49
2018-01-07T17:46:57.937Z,0.48
2018-01-07T17:48:26.119Z,0.46
2018-01-07T17:49:52.897Z,0.45
2018-01-07T17:51:18.961Z,0.42
2018-01-07T17:52:46.862Z,0.38
2018-01-07T17:54:14.008Z,0.36
2018-01-07T17:55:43.992Z,0.35
2018-01-07T17:57:07.661Z,0.35
2018-01-07T17:58:35.769Z,0.35
2018-01-07T18:00:02.432Z,0.32
2018-01-07T18:01:29.739Z,0.26
2018-01-07T18:02:55.747Z,0.19
2018-01-07T18:04:22.939Z,0.16
2018-01-07T18:05:50.857Z,0.05
2018-01-07T18:07:17.977Z,-0.07
2018-01-07T18:08:44.099Z,-0.18
2018-01-07T18:10:11.134Z,-0.25
2018-01-07T18:11:38.491Z,-0.32
2018-01-07T18:13:06.859Z,-0.37
2018-01-07T18:14:34.807Z,-0.35
2018-01-07T18:16:00.912Z,-0.34
2018-01-07T18:17:28.168Z,-0.34
2018-01-07T18:18:54.173Z,-0.33
2018-01-07T18:20:21.223Z,-0.33
2018-01-07T18:21:49.284Z,-0.32
2018-01-07T18:23:16.284Z,-0.33
2018-01-07T18:24:42.346Z,-0.34
2018-01-07T18:26:09.543Z,-0.36
2018-01-07T18:27:36.720Z,-0.35
2018-01-07T18:29:03.744Z,-0.34
2018-01-07T18:30:31.014Z,-0.33
2018-01-07T18:31:59.668Z,-0.32
2018-01-07T18:33:26.638Z,-0.33
2018-01-07T18:34:52.788Z,-0.34
2018-01-07T18:36:20.652Z,-0.35
2018-01-07T18:37:47.462Z,-0.33
2018-01-07T18:39:14.690Z,-0.33
2018-01-07T18:40:40.779Z,-0.35
2018-01-07T18:42:08.911Z,-0.36
2018-01-07T18:43:36.153Z,-0.46
2018-01-07T18:45:03.220Z,-0.50
2018-01-07T18:46:29.618Z,-0.53
2018-01-07T18:47:56.793Z,-0.52
2018-01-07T18:49:24.622Z,-0.50
2018-01-07T18:50:50.955Z,-0.46
2018-01-07T18:52:18.952Z,-0.42
2018-01-07T18:53:45.908Z,-0.46
2018-01-07T18:55:13.060Z,-0.50
2018-01-07T18:56:42.543Z,-0.51
2018-01-07T18:58:09.204Z,-0.50
2018-01-07T18:59:34.535Z,-0.49
2018-01-07T19:01:01.343Z,-0.52
2018-01-07T19:02:27.430Z,-0.57
2018-01-07T19:03:55.412Z,-0.58
2018-01-07T19:05:22.378Z,-0.61
2018-01-07T19:06:48.459Z,-0.64
2018-01-07T19:08:16.612Z,-0.65
2018-01-07T19:09:43.803Z,-0.65
2018-01-07T19:11:10.958Z,-0.60
2018-01-07T19:12:39.796Z,-0.58
2018-01-07T19:14:07.201Z,-0.57
2018-01-07T19:15:31.983Z,-0.57
2018-01-07T19:16:58.753Z,-0.59
2018-01-07T19:18:24.923Z,-0.60